Time;durP1;ratioP1;P1;durP2;ratioP2;P2;SDS_P1;SDS_P2;PMS_P1;PMS_P2;Temp;Humidity;BMP_temperature;BMP_pressure;BME280_temperature;BME280_humidity;BME280_pressure;Samples;Min_cycle;Max_cycle;Signal;HPM_P1;HPM_P2
2020/03/18 00:01:11;;;;;;;9;6;;;;;;;10.42;69.18262;949.9614;;;;
2020/03/18 00:03:34;;;;;;;9;6.1;;;;;;;10.34;69.38672;949.9803;;;;
2020/03/18 00:05:59;;;;;;;9.7;6.2;;;;;;;10.28;69.64063;949.9595;;;;
2020/03/18 00:08:25;;;;;;;13.4;6.8;;;;;;;10.17;70.22754;949.9669;;;;
2020/03/18 00:10:50;;;;;;;11.4;6.5;;;;;;;10.08;71.5;949.9578;;;;
2020/03/18 00:13:15;;;;;;;12.6;6.5;;;;;;;10.1;72.08691;950.0197;;;;
2020/03/18 00:15:40;;;;;;;10.2;6.3;;;;;;;10.17;71.3916;950.002;;;;
2020/03/18 00:18:05;;;;;;;9.1;6.4;;;;;;;10.26;70.9043;949.9272;;;;
2020/03/18 00:20:30;;;;;;;9.9;6.4;;;;;;;10.23;70.83008;949.9766;;;;
2020/03/18 00:22:55;;;;;;;8;5.8;;;;;;;10.26;70.13965;949.9177;;;;
2020/03/18 00:25:20;;;;;;;9.4;6.2;;;;;;;10.27;69.99121;949.9878;;;;
2020/03/18 00:27:45;;;;;;;11.1;6.3;;;;;;;10.25;69.63574;949.9944;;;;
2020/03/18 00:30:11;;;;;;;9.8;6;;;;;;;10.2;69.62793;949.9846;;;;
2020/03/18 00:32:36;;;;;;;9.2;5.9;;;;;;;10.13;70.09473;949.9586;;;;
2020/03/18 00:35:01;;;;;;;8.6;6.3;;;;;;;10.13;69.92383;949.9536;;;;
2020/03/18 00:37:26;;;;;;;10.2;6.3;;;;;;;9.92;70.74512;949.9441;;;;
2020/03/18 00:40:03;;;;;;;11;6.2;;;;;;;9.92;70.83691;949.9638;;;;
2020/03/18 00:42:17;;;;;;;8.6;6;;;;;;;9.93;70.85938;949.9512;;;;
2020/03/18 00:44:42;;;;;;;9.5;6.1;;;;;;;9.88;70.85352;949.9205;;;;
2020/03/18 00:47:07;;;;;;;10.1;6.6;;;;;;;9.72;71.15723;949.9677;;;;
2020/03/18 00:49:32;;;;;;;12.4;6.9;;;;;;;9.71;71.28125;950.0159;;;;
2020/03/18 00:51:57;;;;;;;14.7;7.2;;;;;;;9.67;71.28516;950.0258;;;;
2020/03/18 00:54:23;;;;;;;9.8;6.8;;;;;;;9.58;71.625;949.9297;;;;
2020/03/18 00:56:48;;;;;;;10.4;7;;;;;;;9.42;72.08789;950.008;;;;
2020/03/18 00:59:13;;;;;;;11.3;6.6;;;;;;;9.24;72.58105;949.9653;;;;
2020/03/18 01:01:39;;;;;;;11.7;7.3;;;;;;;9.17;72.94434;949.9475;;;;
2020/03/18 01:04:04;;;;;;;10.3;6.6;;;;;;;9.12;73.21973;949.8812;;;;
2020/03/18 01:06:29;;;;;;;9.8;6.7;;;;;;;9.14;73.22266;949.9258;;;;
2020/03/18 01:08:54;;;;;;;9.8;6.3;;;;;;;8.91;74.17578;949.9615;;;;
2020/03/18 01:11:20;;;;;;;11;6.3;;;;;;;8.88;74.20313;949.8555;;;;
2020/03/18 01:13:44;;;;;;;9.8;6.8;;;;;;;8.86;74.26855;949.8985;;;;
2020/03/18 01:16:10;;;;;;;9.6;6.6;;;;;;;8.66;74.91504;949.8816;;;;
2020/03/18 01:18:35;;;;;;;11.5;6.9;;;;;;;8.54;75.33789;949.8914;;;;
2020/03/18 01:21:00;;;;;;;10.8;6.8;;;;;;;8.5;75.38672;949.8503;;;;
2020/03/18 01:23:25;;;;;;;14;6.8;;;;;;;8.62;74.96582;949.8463;;;;
2020/03/18 01:25:51;;;;;;;10.7;6.5;;;;;;;8.81;74.01074;949.8445;;;;
2020/03/18 01:28:16;;;;;;;9.3;6.7;;;;;;;8.94;73.29297;949.8656;;;;
2020/03/18 01:30:41;;;;;;;9.1;6.5;;;;;;;8.93;73.25586;949.8603;;;;
2020/03/18 01:33:06;;;;;;;12.4;6.7;;;;;;;9.02;72.77246;949.8336;;;;
2020/03/18 01:35:31;;;;;;;9.5;6.3;;;;;;;9.03;72.6709;949.8292;;;;
2020/03/18 01:37:56;;;;;;;11;6.3;;;;;;;9.01;72.62109;949.832;;;;
2020/03/18 01:40:21;;;;;;;12.3;6.7;;;;;;;8.97;72.66016;949.7561;;;;
2020/03/18 01:42:46;;;;;;;12.8;6.6;;;;;;;8.95;72.62305;949.7294;;;;
2020/03/18 01:45:11;;;;;;;8.8;6.2;;;;;;;8.94;72.53027;949.7608;;;;
2020/03/18 01:47:36;;;;;;;11.1;6.8;;;;;;;8.78;73.05859;949.6873;;;;
2020/03/18 01:50:01;;;;;;;11.7;6.8;;;;;;;8.59;73.80176;949.7399;;;;
2020/03/18 01:52:27;;;;;;;10.8;6.7;;;;;;;8.52;74.00488;949.7367;;;;
2020/03/18 01:54:52;;;;;;;8.9;6.3;;;;;;;8.54;73.81641;949.7693;;;;
2020/03/18 01:57:17;;;;;;;10.2;6.8;;;;;;;8.57;73.7168;949.7701;;;;
2020/03/18 01:59:42;;;;;;;14.8;10;;;;;;;8.61;73.32813;949.6744;;;;
2020/03/18 02:02:07;;;;;;;10.5;6.4;;;;;;;8.63;73.39844;949.7592;;;;
2020/03/18 02:04:33;;;;;;;12.8;6.7;;;;;;;8.59;73.35645;949.7549;;;;
2020/03/18 02:06:58;;;;;;;11;6.4;;;;;;;8.58;73.28809;949.7017;;;;
2020/03/18 02:09:23;;;;;;;9.6;6.4;;;;;;;8.5;73.48926;949.6582;;;;
2020/03/18 02:11:48;;;;;;;9.9;6.4;;;;;;;8.42;73.76074;949.7109;;;;
2020/03/18 02:14:13;;;;;;;9;6.5;;;;;;;8.29;74.2041;949.7079;;;;
2020/03/18 02:19:04;;;;;;;11.4;6.8;;;;;;;8.09;75.1123;949.7434;;;;
2020/03/18 02:21:34;;;;;;;11.7;6.6;;;;;;;8.11;75.19531;949.7764;;;;
2020/03/18 02:23:59;;;;;;;8.7;6.3;;;;;;;8.22;74.50977;949.7382;;;;
2020/03/18 02:26:19;;;;;;;11.1;6.8;;;;;;;8.27;74.14355;949.6875;;;;
2020/03/18 02:28:44;;;;;;;15.4;7.3;;;;;;;8.28;73.83984;949.7427;;;;
2020/03/18 02:31:09;;;;;;;10.8;6.6;;;;;;;8.24;73.93359;949.6166;;;;
2020/03/18 02:33:34;;;;;;;11.2;7.1;;;;;;;8.22;73.75879;949.7428;;;;
2020/03/18 02:35:59;;;;;;;11.8;6.6;;;;;;;8.15;73.94141;949.7297;;;;
2020/03/18 02:38:25;;;;;;;11.5;6.9;;;;;;;8.11;73.90137;949.713;;;;
2020/03/18 02:40:50;;;;;;;10.9;6.8;;;;;;;8.08;73.98535;949.7119;;;;
2020/03/18 02:43:15;;;;;;;10.1;6.8;;;;;;;8.05;73.95801;949.6758;;;;
2020/03/18 02:45:40;;;;;;;12.1;7.1;;;;;;;8.01;74.23535;949.6849;;;;
2020/03/18 02:48:05;;;;;;;12.3;6.6;;;;;;;7.97;74.40918;949.6102;;;;
2020/03/18 02:50:30;;;;;;;10.9;6.6;;;;;;;7.91;74.70703;949.5595;;;;
2020/03/18 02:52:56;;;;;;;10.2;6.3;;;;;;;7.86;74.5498;949.6225;;;;
2020/03/18 02:55:21;;;;;;;9.7;7.1;;;;;;;7.78;74.91016;949.6145;;;;
2020/03/18 02:57:47;;;;;;;10.8;6.9;;;;;;;7.49;75.8916;949.6101;;;;
2020/03/18 03:00:12;;;;;;;9.5;6.7;;;;;;;7.23;76.96875;949.5608;;;;
2020/03/18 03:02:37;;;;;;;12.3;6.7;;;;;;;7.1;77.89551;949.5308;;;;
2020/03/18 03:05:02;;;;;;;12.6;7.7;;;;;;;7.03;78.40137;949.6266;;;;
2020/03/18 03:07:27;;;;;;;10.5;7.2;;;;;;;6.97;78.87891;949.6033;;;;
2020/03/18 03:09:53;;;;;;;11.1;7.7;;;;;;;7.02;78.99023;949.5953;;;;
2020/03/18 03:12:18;;;;;;;10.8;7.6;;;;;;;7.15;78.43652;949.6;;;;
2020/03/18 03:14:45;;;;;;;10.1;6.9;;;;;;;7.33;77.59766;949.5585;;;;
2020/03/18 03:17:10;;;;;;;8.9;6.9;;;;;;;7.31;77.58203;949.5931;;;;
2020/03/18 03:19:35;;;;;;;9.5;7.2;;;;;;;7.39;77.13184;949.5845;;;;
2020/03/18 03:22:04;;;;;;;13.3;7.7;;;;;;;7.49;76.42383;949.587;;;;
2020/03/18 03:24:29;;;;;;;10.4;7.5;;;;;;;7.51;76.22363;949.6071;;;;
2020/03/18 03:26:54;;;;;;;10;7.6;;;;;;;7.32;76.93945;949.4939;;;;
2020/03/18 03:29:19;;;;;;;11.6;7.5;;;;;;;7.4;76.4873;949.5848;;;;
2020/03/18 03:31:44;;;;;;;11.3;7.6;;;;;;;7.45;76.14551;949.5945;;;;
2020/03/18 03:34:09;;;;;;;11.1;7.5;;;;;;;7.48;75.84473;949.639;;;;
2020/03/18 03:36:34;;;;;;;10.5;7.2;;;;;;;7.51;75.21387;949.6245;;;;
2020/03/18 03:38:59;;;;;;;10.6;7;;;;;;;7.48;75.07227;949.6167;;;;
2020/03/18 03:41:25;;;;;;;11;7.1;;;;;;;7.3;75.86914;949.599;;;;
2020/03/18 03:43:52;;;;;;;10.4;7;;;;;;;7.28;75.97754;949.6203;;;;
2020/03/18 03:46:18;;;;;;;9.1;6.5;;;;;;;7.16;76.4668;949.6683;;;;
2020/03/18 03:48:43;;;;;;;9.7;6.9;;;;;;;6.97;77.45215;949.6572;;;;
2020/03/18 03:51:08;;;;;;;15.7;8.7;;;;;;;6.71;78.51563;949.6717;;;;
2020/03/18 03:53:33;;;;;;;22.7;9.9;;;;;;;6.69;78.86133;949.6635;;;;
2020/03/18 03:55:58;;;;;;;22.1;10.4;;;;;;;6.74;78.70117;949.6609;;;;
2020/03/18 03:58:23;;;;;;;15.7;8.5;;;;;;;6.75;78.80273;949.6365;;;;
2020/03/18 04:02:30;;;;;;;12;7.8;;;;;;;6.82;78.58008;949.6178;;;;
2020/03/18 04:04:55;;;;;;;10.5;7.2;;;;;;;6.86;78.46387;949.5983;;;;
2020/03/18 04:07:35;;;;;;;12;7.2;;;;;;;6.98;77.9082;949.5936;;;;
2020/03/18 04:09:45;;;;;;;10;7.3;;;;;;;7.06;77.32227;949.6526;;;;
2020/03/18 04:12:10;;;;;;;13.7;7.9;;;;;;;7.07;77.05078;949.5881;;;;
2020/03/18 04:14:35;;;;;;;10.7;7.3;;;;;;;7.05;76.91211;949.619;;;;
2020/03/18 04:17:00;;;;;;;11.5;7.2;;;;;;;6.97;77.19336;949.6226;;;;
2020/03/18 04:19:26;;;;;;;10.5;7.2;;;;;;;7.02;76.74805;949.6239;;;;
2020/03/18 04:21:51;;;;;;;10.7;6.9;;;;;;;6.97;76.54785;949.6036;;;;
2020/03/18 04:24:17;;;;;;;10;7.3;;;;;;;6.83;77.24609;949.6317;;;;
2020/03/18 04:26:41;;;;;;;10.7;7.1;;;;;;;6.7;77.70898;949.6694;;;;
2020/03/18 04:29:07;;;;;;;10.9;7.7;;;;;;;6.45;79.02148;949.6563;;;;
2020/03/18 04:31:32;;;;;;;12.8;7.9;;;;;;;6.3;79.7959;949.6127;;;;
2020/03/18 04:33:57;;;;;;;10.7;7.7;;;;;;;6.24;80.13477;949.6498;;;;
2020/03/18 04:36:22;;;;;;;13.5;8.3;;;;;;;6.36;79.45508;949.5974;;;;
2020/03/18 04:38:47;;;;;;;9.5;7.8;;;;;;;6.45;78.95215;949.6156;;;;
2020/03/18 04:41:12;;;;;;;14.5;8.3;;;;;;;6.47;78.71973;949.6506;;;;
2020/03/18 04:43:37;;;;;;;12.3;7.9;;;;;;;6.47;78.66504;949.6113;;;;
2020/03/18 04:46:02;;;;;;;11.3;8.5;;;;;;;6.39;79.04395;949.6603;;;;
2020/03/18 04:48:27;;;;;;;12.7;8.3;;;;;;;6.33;79.17871;949.5715;;;;
2020/03/18 04:50:52;;;;;;;12.4;8.8;;;;;;;6.17;79.96484;949.6401;;;;
2020/03/18 04:53:17;;;;;;;11.2;8.3;;;;;;;6.01;80.70117;949.623;;;;
2020/03/18 04:55:43;;;;;;;11.8;8.6;;;;;;;5.94;80.91602;949.6526;;;;
2020/03/18 04:58:08;;;;;;;12.8;8.8;;;;;;;6;80.31641;949.6845;;;;
2020/03/18 05:00:33;;;;;;;13.7;8.8;;;;;;;5.9;80.5918;949.6791;;;;
2020/03/18 05:02:58;;;;;;;12.5;8.4;;;;;;;5.87;80.8125;949.6691;;;;
2020/03/18 05:05:23;;;;;;;11.1;7.9;;;;;;;5.87;80.95801;949.6758;;;;
2020/03/18 05:07:48;;;;;;;10.4;7.8;;;;;;;5.83;81.36816;949.7209;;;;
2020/03/18 05:10:13;;;;;;;10.7;8.6;;;;;;;5.72;81.60742;949.725;;;;
2020/03/18 05:12:39;;;;;;;11.4;7.6;;;;;;;5.69;81.63672;949.7014;;;;
2020/03/18 05:15:04;;;;;;;10.2;8;;;;;;;5.63;82.2002;949.7043;;;;
2020/03/18 05:17:29;;;;;;;13.7;8.3;;;;;;;5.61;82.68164;949.723;;;;
2020/03/18 05:19:54;;;;;;;15.1;8.6;;;;;;;5.67;82.625;949.6948;;;;
2020/03/18 05:22:19;;;;;;;12.1;8.3;;;;;;;5.7;82.4375;949.7017;;;;
2020/03/18 05:24:44;;;;;;;12.1;9.2;;;;;;;5.73;82.10645;949.7245;;;;
2020/03/18 05:27:09;;;;;;;12.5;8.7;;;;;;;5.62;82.59375;949.7067;;;;
2020/03/18 05:29:34;;;;;;;14.4;8.4;;;;;;;5.68;82.2666;949.7604;;;;
2020/03/18 05:32:00;;;;;;;10.3;8.1;;;;;;;5.69;82.03125;949.7473;;;;
2020/03/18 05:34:25;;;;;;;10.5;7.6;;;;;;;5.69;81.8623;949.7071;;;;
2020/03/18 05:36:50;;;;;;;12.3;8.1;;;;;;;5.55;82.71289;949.7521;;;;
2020/03/18 05:39:15;;;;;;;10.7;7.6;;;;;;;5.61;82.64648;949.8011;;;;
2020/03/18 05:41:40;;;;;;;17.2;9.9;;;;;;;5.66;82.35156;949.7781;;;;
2020/03/18 05:44:06;;;;;;;14.5;9.3;;;;;;;5.74;82.29004;949.7701;;;;
2020/03/18 05:46:34;;;;;;;16;9.5;;;;;;;5.89;81.60449;949.7209;;;;
2020/03/18 05:48:56;;;;;;;12.2;8.5;;;;;;;6;80.92676;949.7266;;;;
2020/03/18 05:51:21;;;;;;;15;8.6;;;;;;;5.99;80.82324;949.6825;;;;
2020/03/18 05:53:47;;;;;;;10.7;7.5;;;;;;;6.05;80.31348;949.6412;;;;
2020/03/18 05:56:12;;;;;;;11.5;7.6;;;;;;;6.08;80.11523;949.6423;;;;
2020/03/18 05:58:37;;;;;;;11;7.6;;;;;;;6.02;80.28613;949.6311;;;;
2020/03/18 06:01:02;;;;;;;12.8;7.6;;;;;;;6.05;80.46191;949.6753;;;;
2020/03/18 06:03:27;;;;;;;11.8;6.6;;;;;;;6.44;79.56152;949.6531;;;;
2020/03/18 06:05:52;;;;;;;9.1;6.1;;;;;;;7.22;76.3418;949.572;;;;
2020/03/18 06:08:17;;;;;;;14.6;6.6;;;;;;;8.07;72.97363;949.6631;;;;
2020/03/18 06:10:42;;;;;;;22.6;7.8;;;;;;;9.04;69.17969;949.6555;;;;
2020/03/18 06:13:08;;;;;;;15.5;7.2;;;;;;;9.99;65.41992;949.5815;;;;
2020/03/18 06:15:33;;;;;;;11.3;6.5;;;;;;;10.17;64.33008;949.6334;;;;
2020/03/18 06:17:58;;;;;;;12.2;6.7;;;;;;;10.15;63.75684;949.5946;;;;
2020/03/18 06:20:23;;;;;;;10.4;7;;;;;;;9.63;65.42285;949.5673;;;;
2020/03/18 06:22:49;;;;;;;11.5;7.2;;;;;;;9.78;65.30957;949.611;;;;
2020/03/18 06:25:14;;;;;;;14.1;7.2;;;;;;;9.97;64.64258;949.5619;;;;
2020/03/18 06:27:39;;;;;;;11.1;6.9;;;;;;;9.49;66.10645;949.6039;;;;
2020/03/18 06:31:42;;;;;;;14;7.1;;;;;;;9.66;65.25586;949.5895;;;;
2020/03/18 06:34:07;;;;;;;14.5;7.7;;;;;;;10.21;63.74219;949.5672;;;;
2020/03/18 06:36:32;;;;;;;13.2;7.9;;;;;;;10.08;63.58496;949.6115;;;;
2020/03/18 06:38:57;;;;;;;14.7;7.9;;;;;;;10.16;63.68848;949.5645;;;;
2020/03/18 06:41:23;;;;;;;15.1;7.7;;;;;;;10.3;63.33398;949.5519;;;;
2020/03/18 06:43:48;;;;;;;13;7.5;;;;;;;10.72;61.69336;949.6006;;;;
2020/03/18 06:46:13;;;;;;;14.8;7.6;;;;;;;10.61;62.09863;949.6802;;;;
2020/03/18 06:48:38;;;;;;;15.4;7.4;;;;;;;10.88;61.50977;949.558;;;;
2020/03/18 06:51:03;;;;;;;18.8;7.2;;;;;;;10.87;61.62207;949.6209;;;;
2020/03/18 06:53:28;;;;;;;20.6;6.7;;;;;;;11.08;60.98926;949.668;;;;
2020/03/18 06:55:53;;;;;;;18.8;7.3;;;;;;;11.65;59.61621;949.6757;;;;
2020/03/18 06:58:18;;;;;;;13.5;6.9;;;;;;;11.59;59.50488;949.6047;;;;
2020/03/18 07:00:43;;;;;;;19.2;7;;;;;;;12.39;57.72266;949.6383;;;;
2020/03/18 07:03:08;;;;;;;16.8;6.5;;;;;;;13.31;54.76465;949.6821;;;;
2020/03/18 07:05:34;;;;;;;14.3;6.4;;;;;;;13.52;53.84863;949.6796;;;;
2020/03/18 07:07:59;;;;;;;6.8;5.2;;;;;;;13.44;53.42578;949.647;;;;
2020/03/18 07:10:24;;;;;;;12.4;6.3;;;;;;;13.84;52.71484;949.6196;;;;
2020/03/18 07:12:49;;;;;;;11.1;5.6;;;;;;;14.19;52.14746;949.54;;;;
2020/03/18 07:15:14;;;;;;;12.7;5.8;;;;;;;14.14;51.81836;949.6227;;;;
2020/03/18 07:17:40;;;;;;;9.7;5.7;;;;;;;14.07;51.9834;949.5623;;;;
2020/03/18 07:20:05;;;;;;;10.9;4.8;;;;;;;14.28;51.19043;949.5503;;;;
2020/03/18 07:22:31;;;;;;;9;4.6;;;;;;;14.8;50.3291;949.4958;;;;
2020/03/18 07:24:57;;;;;;;11.1;5.3;;;;;;;15.25;48.77637;949.5183;;;;
2020/03/18 07:27:22;;;;;;;10.7;5.1;;;;;;;14.99;48.89844;949.4598;;;;
2020/03/18 07:29:47;;;;;;;11.4;5.7;;;;;;;14.85;49.50391;949.4695;;;;
2020/03/18 07:32:12;;;;;;;13.1;5.4;;;;;;;14.74;49.75684;949.4792;;;;
2020/03/18 07:34:38;;;;;;;11.5;6.5;;;;;;;15.49;47.74121;949.4445;;;;
2020/03/18 07:37:03;;;;;;;25.8;6.8;;;;;;;16.2;46.2334;949.3663;;;;
2020/03/18 07:39:28;;;;;;;10.8;5.6;;;;;;;16.79;44.63867;949.412;;;;
2020/03/18 07:41:53;;;;;;;12.3;5.5;;;;;;;17.07;44.23926;949.4207;;;;
2020/03/18 07:44:18;;;;;;;8.2;5.3;;;;;;;17.83;42.11035;949.3019;;;;
2020/03/18 07:46:44;;;;;;;7.6;4.4;;;;;;;17.07;43.72852;949.3312;;;;
2020/03/18 07:49:09;;;;;;;8.6;4.6;;;;;;;18.4;42.0957;949.2942;;;;
2020/03/18 07:51:34;;;;;;;10.6;5.1;;;;;;;19.5;38.83203;949.2679;;;;
2020/03/18 07:53:59;;;;;;;11.1;5.2;;;;;;;19.99;37.45215;949.2809;;;;
2020/03/18 07:56:24;;;;;;;8.3;4.8;;;;;;;21.3;35.43262;949.2852;;;;
2020/03/18 07:58:49;;;;;;;8.4;4.5;;;;;;;20.5;36.26758;949.2414;;;;
2020/03/18 08:01:14;;;;;;;10.8;4.8;;;;;;;21.99;34.38672;949.1877;;;;
2020/03/18 08:03:39;;;;;;;10.6;4.7;;;;;;;22.88;32.27051;949.1331;;;;
2020/03/18 08:06:05;;;;;;;7.9;4.4;;;;;;;23.87;31.58984;949.0552;;;;
2020/03/18 08:08:30;;;;;;;9.2;4.3;;;;;;;24.42;29.81348;949.0697;;;;
2020/03/18 08:10:55;;;;;;;8;4.4;;;;;;;23.73;30.4502;949.0789;;;;
2020/03/18 08:13:20;;;;;;;9.4;4.2;;;;;;;24.93;29.41113;949.0564;;;;
2020/03/18 08:15:45;;;;;;;11;4.3;;;;;;;25.94;27.43262;949.0196;;;;
2020/03/18 08:18:10;;;;;;;7.3;4.1;;;;;;;27.09;26.04492;948.9386;;;;
2020/03/18 08:20:35;;;;;;;10.2;4.6;;;;;;;26.93;25.75098;948.9906;;;;
2020/03/18 08:23:01;;;;;;;6.6;4.4;;;;;;;27.52;25.64258;948.9655;;;;
2020/03/18 08:25:26;;;;;;;8.4;4.1;;;;;;;27.2;24.85254;948.9936;;;;
2020/03/18 08:27:51;;;;;;;16.3;4.7;;;;;;;26.04;26.44531;948.9078;;;;
2020/03/18 08:30:16;;;;;;;8.4;4.3;;;;;;;23.53;29.50684;948.8358;;;;
2020/03/18 08:32:41;;;;;;;7.9;4.3;;;;;;;24.21;29.43457;948.7881;;;;
2020/03/18 08:35:07;;;;;;;6;4;;;;;;;25.17;28.36523;948.77;;;;
2020/03/18 08:37:32;;;;;;;7.2;4.1;;;;;;;25.58;27.10254;948.7433;;;;
2020/03/18 08:39:57;;;;;;;5.3;4;;;;;;;25.7;27.33496;948.7422;;;;
2020/03/18 08:42:23;;;;;;;10.1;4.1;;;;;;;26.69;26.63672;948.7188;;;;
2020/03/18 08:44:48;;;;;;;7.9;4;;;;;;;27.99;24.52832;948.617;;;;
2020/03/18 08:47:36;;;;;;;6;3.8;;;;;;;26.95;24.94629;948.6546;;;;
2020/03/18 08:49:38;;;;;;;6.4;4.3;;;;;;;28.04;24.42383;948.6138;;;;
2020/03/18 08:52:06;;;;;;;5.8;4;;;;;;;27.02;24.86719;948.5641;;;;
2020/03/18 08:54:29;;;;;;;7.1;4.1;;;;;;;24.66;27.54199;948.5457;;;;
2020/03/18 08:56:54;;;;;;;7.3;4;;;;;;;24.56;28.63281;948.5627;;;;
2020/03/18 08:59:20;;;;;;;5.7;4.3;;;;;;;25.29;27.19238;948.473;;;;
2020/03/18 09:01:45;;;;;;;6.6;4.2;;;;;;;26.02;27.40137;948.452;;;;
2020/03/18 09:04:10;;;;;;;7.3;4.4;;;;;;;26.45;25.35547;948.3867;;;;
2020/03/18 09:06:35;;;;;;;9.8;4.5;;;;;;;27.47;25.1416;948.3364;;;;
2020/03/18 09:09:00;;;;;;;7.9;3.6;;;;;;;25.97;26.4873;948.3084;;;;
2020/03/18 09:11:26;;;;;;;6.7;4.2;;;;;;;26.46;25.64063;948.3406;;;;
2020/03/18 09:13:51;;;;;;;8;4;;;;;;;26.56;25.54004;948.2953;;;;
2020/03/18 09:16:16;;;;;;;7.2;4.2;;;;;;;27.7;24.73828;948.2399;;;;
2020/03/18 09:18:43;;;;;;;7.4;3.8;;;;;;;28.19;23.45801;948.2839;;;;
2020/03/18 09:21:08;;;;;;;6.9;3.8;;;;;;;28.31;23.72656;948.2265;;;;
2020/03/18 09:23:33;;;;;;;4.6;3.8;;;;;;;28.6;23.22949;948.1856;;;;
2020/03/18 09:25:58;;;;;;;7.4;4;;;;;;;28.84;23.12305;948.1636;;;;
2020/03/18 09:28:23;;;;;;;6.3;4;;;;;;;29.17;23.22363;948.1579;;;;
2020/03/18 09:30:48;;;;;;;5.5;4.1;;;;;;;29.69;21.81934;948.1174;;;;
2020/03/18 09:33:13;;;;;;;4.8;3.7;;;;;;;30.04;21.3584;948.0377;;;;
2020/03/18 09:35:39;;;;;;;5;3.9;;;;;;;30.13;21.8291;948.0478;;;;
2020/03/18 09:38:04;;;;;;;7;4.2;;;;;;;29.92;21.37695;948.0273;;;;
2020/03/18 09:40:29;;;;;;;5.7;3.9;;;;;;;29.51;22.39453;948.0137;;;;
2020/03/18 09:42:54;;;;;;;6.9;4.4;;;;;;;29.65;22.37793;948.0046;;;;
2020/03/18 09:45:19;;;;;;;6.9;4.6;;;;;;;29.71;22.1543;947.9064;;;;
2020/03/18 09:47:44;;;;;;;7.1;4.8;;;;;;;29.45;22.55859;947.8998;;;;
2020/03/18 09:50:09;;;;;;;7.6;4.8;;;;;;;29.45;22.58203;947.9261;;;;
2020/03/18 09:52:35;;;;;;;7.3;4.2;;;;;;;28.92;23.66309;947.9487;;;;
2020/03/18 09:55:00;;;;;;;7.3;4.3;;;;;;;28.11;24.6543;947.9029;;;;
2020/03/18 09:57:25;;;;;;;9.5;4.5;;;;;;;27.89;25.0459;947.8886;;;;
2020/03/18 09:59:50;;;;;;;7;4.2;;;;;;;27.63;25.33984;947.8473;;;;
2020/03/18 10:02:16;;;;;;;6.4;4;;;;;;;27.6;25.44531;947.8031;;;;
2020/03/18 10:04:41;;;;;;;5.5;3.9;;;;;;;27.64;24.48633;947.7955;;;;
2020/03/18 10:07:06;;;;;;;6.9;4.1;;;;;;;27.12;25.21582;947.7953;;;;
2020/03/18 10:09:32;;;;;;;5.7;4.2;;;;;;;26.71;25.39453;947.7815;;;;
2020/03/18 10:11:57;;;;;;;6.1;4.2;;;;;;;26.26;26.33984;947.7631;;;;
2020/03/18 10:14:22;;;;;;;6.5;4.4;;;;;;;26.25;27.34473;947.7971;;;;
2020/03/18 10:16:48;;;;;;;7;4.2;;;;;;;26.17;26.38184;947.7865;;;;
2020/03/18 10:19:13;;;;;;;6.4;4.1;;;;;;;26.03;26.64551;947.7506;;;;
2020/03/18 10:21:38;;;;;;;6.3;3.9;;;;;;;26.31;26.02246;947.7043;;;;
2020/03/18 10:24:03;;;;;;;6.9;3.9;;;;;;;26.75;24.94727;947.687;;;;
2020/03/18 10:26:28;;;;;;;7;4.3;;;;;;;26.46;25.86523;947.6561;;;;
2020/03/18 10:28:53;;;;;;;7.1;3.9;;;;;;;26.17;27.1748;947.6225;;;;
2020/03/18 10:31:19;;;;;;;5.7;4.2;;;;;;;25.14;29.21289;947.6842;;;;
2020/03/18 10:33:44;;;;;;;7.8;4.4;;;;;;;24.63;29.92188;947.6389;;;;
2020/03/18 10:36:09;;;;;;;6.3;4.7;;;;;;;24.36;31.70703;947.6448;;;;
2020/03/18 10:38:35;;;;;;;7.7;4.6;;;;;;;25.09;28.98438;947.576;;;;
2020/03/18 10:41:00;;;;;;;7.3;5.2;;;;;;;24.92;29.26855;947.5775;;;;
2020/03/18 10:43:25;;;;;;;8.1;5.2;;;;;;;25.34;28.45801;947.5477;;;;
2020/03/18 10:45:51;;;;;;;6;5;;;;;;;25.48;29.17578;947.478;;;;
2020/03/18 10:48:16;;;;;;;7.9;5.4;;;;;;;24.7;30.55078;947.5392;;;;
2020/03/18 10:50:41;;;;;;;10.4;5.6;;;;;;;25.24;29.1123;947.5168;;;;
2020/03/18 10:53:06;;;;;;;7.4;5.2;;;;;;;25.53;28.02148;947.4933;;;;
2020/03/18 10:55:32;;;;;;;7.8;6;;;;;;;24.93;30.13086;947.4654;;;;
2020/03/18 10:57:57;;;;;;;7.3;5.6;;;;;;;25.18;29.67578;947.4573;;;;
2020/03/18 11:00:22;;;;;;;8;5.5;;;;;;;24.45;31.44141;947.5098;;;;
2020/03/18 11:02:47;;;;;;;7.8;5.7;;;;;;;24.12;32.23145;947.4319;;;;
2020/03/18 11:05:12;;;;;;;7.6;6;;;;;;;24.65;31.29102;947.4186;;;;
2020/03/18 11:07:37;;;;;;;6.9;5.4;;;;;;;24.8;30.37012;947.4197;;;;
2020/03/18 11:10:02;;;;;;;9.4;5.9;;;;;;;25.45;29.48145;947.3642;;;;
2020/03/18 11:12:28;;;;;;;9;5.3;;;;;;;26.1;29.27539;947.363;;;;
2020/03/18 11:14:54;;;;;;;7.3;5.6;;;;;;;26.82;27.50977;947.2879;;;;
2020/03/18 11:17:19;;;;;;;9;5.7;;;;;;;26.12;28.98047;947.2371;;;;
2020/03/18 11:19:44;;;;;;;8.3;5.7;;;;;;;25.62;30.26074;947.2285;;;;
2020/03/18 11:22:09;;;;;;;10.8;5.8;;;;;;;25.25;30.21191;947.1096;;;;
2020/03/18 11:24:35;;;;;;;6.9;5.7;;;;;;;25.16;30.24023;947.1481;;;;
2020/03/18 11:27:00;;;;;;;8.9;5.5;;;;;;;24.27;32.17188;947.1594;;;;
2020/03/18 11:29:25;;;;;;;8.8;6;;;;;;;24.78;31.53516;947.1124;;;;
2020/03/18 11:31:51;;;;;;;8.8;5.8;;;;;;;25.44;30.45996;947.0497;;;;
2020/03/18 11:34:16;;;;;;;7.4;5.1;;;;;;;25.48;30.01465;947.0524;;;;
2020/03/18 11:36:41;;;;;;;9;6.1;;;;;;;26.47;28.03223;946.9842;;;;
2020/03/18 11:39:06;;;;;;;8;5.9;;;;;;;25.44;30.55566;947.0153;;;;
2020/03/18 11:41:31;;;;;;;10.1;6.1;;;;;;;25.52;29.89844;946.9344;;;;
2020/03/18 11:43:56;;;;;;;10.6;6.2;;;;;;;25.16;30.60645;946.9069;;;;
2020/03/18 11:46:21;;;;;;;6.5;5.8;;;;;;;25.49;31.19629;946.9401;;;;
2020/03/18 11:48:47;;;;;;;8.1;6.3;;;;;;;26.46;28.78906;946.8752;;;;
2020/03/18 11:51:12;;;;;;;7.2;5.9;;;;;;;26.37;29.49414;946.7664;;;;
2020/03/18 11:53:37;;;;;;;8.5;6.2;;;;;;;25.8;30.30762;946.6859;;;;
2020/03/18 11:56:03;;;;;;;7.2;6.1;;;;;;;26.46;28.32813;946.7068;;;;
2020/03/18 11:58:29;;;;;;;9;5.7;;;;;;;26.36;28.51172;946.6463;;;;
2020/03/18 12:01:10;;;;;;;7.6;6.3;;;;;;;26.14;30.03516;946.6454;;;;
2020/03/18 12:03:35;;;;;;;8;6.6;;;;;;;26.51;29.06543;946.5186;;;;
2020/03/18 12:06:00;;;;;;;9.3;6.3;;;;;;;26.34;29.26758;946.6094;;;;
2020/03/18 12:08:26;;;;;;;6.9;5.8;;;;;;;27.1;28.08398;946.558;;;;
2020/03/18 12:10:51;;;;;;;8.9;6.5;;;;;;;27.03;28.56543;946.5541;;;;
2020/03/18 12:13:16;;;;;;;8.9;6.1;;;;;;;28.42;26.27637;946.4927;;;;
2020/03/18 12:15:41;;;;;;;9;6.5;;;;;;;27.55;28.55078;946.4422;;;;
2020/03/18 12:18:06;;;;;;;8.2;6.1;;;;;;;27.98;26.92773;946.4703;;;;
2020/03/18 12:20:31;;;;;;;8.5;6.3;;;;;;;28.76;26.05762;946.4233;;;;
2020/03/18 12:22:57;;;;;;;9.6;6.3;;;;;;;27.38;28.08984;946.3738;;;;
2020/03/18 12:25:21;;;;;;;9;6.1;;;;;;;28.13;26.33105;946.3264;;;;
2020/03/18 12:27:46;;;;;;;9.8;6;;;;;;;28.45;26.20703;946.3563;;;;
2020/03/18 12:30:12;;;;;;;9.4;6.1;;;;;;;27.78;27.22461;946.2851;;;;
2020/03/18 12:32:36;;;;;;;9.4;6.1;;;;;;;26.55;29.19824;946.3071;;;;
2020/03/18 12:35:02;;;;;;;8.2;6.1;;;;;;;26.87;27.6543;946.2964;;;;
2020/03/18 12:37:27;;;;;;;7.9;5.6;;;;;;;28.68;25.45801;946.1705;;;;
2020/03/18 12:39:52;;;;;;;7.3;5.8;;;;;;;29.15;25.17578;946.1814;;;;
2020/03/18 12:42:17;;;;;;;6.7;5.6;;;;;;;29.99;23.20605;946.1631;;;;
2020/03/18 12:44:42;;;;;;;9.9;5.8;;;;;;;30.48;22.9209;946.1061;;;;
2020/03/18 12:47:07;;;;;;;6.6;5.4;;;;;;;29.2;24.79688;946.125;;;;
2020/03/18 12:49:32;;;;;;;6.9;5.4;;;;;;;30;23.60059;946.0286;;;;
2020/03/18 12:51:57;;;;;;;7;5.5;;;;;;;28.96;24.60547;946.0616;;;;
2020/03/18 12:54:22;;;;;;;9.1;6.2;;;;;;;28.23;26.91895;945.9785;;;;
2020/03/18 12:56:47;;;;;;;9.2;5.9;;;;;;;29.21;25.25;945.9528;;;;
2020/03/18 12:59:15;;;;;;;7.9;5.7;;;;;;;28.16;25.82129;945.9786;;;;
2020/03/18 13:01:37;;;;;;;6.8;5.8;;;;;;;28.31;25.78223;945.9172;;;;
2020/03/18 13:04:03;;;;;;;8;5.7;;;;;;;26.69;27.95215;945.9029;;;;
2020/03/18 13:06:28;;;;;;;8.7;6;;;;;;;26.68;28.09375;945.8942;;;;
2020/03/18 13:08:53;;;;;;;9.9;5.6;;;;;;;28.67;25.35059;945.7659;;;;
2020/03/18 13:11:18;;;;;;;10.4;6.1;;;;;;;26.08;29.91211;945.7536;;;;
2020/03/18 13:13:43;;;;;;;7.2;5.6;;;;;;;27.18;27.10547;945.856;;;;
2020/03/18 13:16:08;;;;;;;8.7;5.6;;;;;;;27.64;26.54004;945.8502;;;;
2020/03/18 13:18:33;;;;;;;7.5;5.6;;;;;;;28.02;25.96777;945.8192;;;;
2020/03/18 13:20:58;;;;;;;8;5.4;;;;;;;26.79;27.44824;945.7114;;;;
2020/03/18 13:23:24;;;;;;;9.2;5.4;;;;;;;26.36;28.36914;945.7456;;;;
2020/03/18 13:25:49;;;;;;;7.9;5.1;;;;;;;26.28;27.87891;945.5818;;;;
2020/03/18 13:28:14;;;;;;;6.4;4.9;;;;;;;26.29;28.68457;945.7194;;;;
2020/03/18 13:30:39;;;;;;;5.7;4.3;;;;;;;27.45;26.1123;945.7216;;;;
2020/03/18 13:33:04;;;;;;;6.8;5;;;;;;;27;27.56836;945.8184;;;;
2020/03/18 13:35:29;;;;;;;6.6;4.7;;;;;;;27.3;26.18652;945.7975;;;;
2020/03/18 13:37:54;;;;;;;5.7;4.3;;;;;;;28.2;24.95605;945.7061;;;;
2020/03/18 13:40:20;;;;;;;6.4;4.8;;;;;;;25.78;28.50977;945.6526;;;;
2020/03/18 13:42:45;;;;;;;6.6;4.9;;;;;;;25.43;29.60938;945.7313;;;;
2020/03/18 13:45:10;;;;;;;6.2;4.5;;;;;;;25.25;29.39746;945.6355;;;;
2020/03/18 13:47:35;;;;;;;6.9;4.7;;;;;;;25.02;30.78613;945.6534;;;;
2020/03/18 13:50:01;;;;;;;8.5;5.1;;;;;;;25.5;29.49609;945.7043;;;;
2020/03/18 13:52:26;;;;;;;11;4.9;;;;;;;25.64;30.36816;945.6038;;;;
2020/03/18 13:54:51;;;;;;;6;4.6;;;;;;;25.77;28.5918;945.6211;;;;
2020/03/18 13:57:16;;;;;;;8.1;4.6;;;;;;;25.35;29.29688;945.5717;;;;
2020/03/18 13:59:41;;;;;;;7.3;4.7;;;;;;;24.9;30.35352;945.579;;;;
2020/03/18 14:02:07;;;;;;;6.4;4.6;;;;;;;24.84;29.93555;945.5323;;;;
2020/03/18 14:04:32;;;;;;;5.1;4.3;;;;;;;25.75;29.53613;945.4647;;;;
2020/03/18 14:06:57;;;;;;;7.9;4.3;;;;;;;26.83;27.16699;945.5417;;;;
2020/03/18 14:09:23;;;;;;;5.9;4.3;;;;;;;25.53;29.74609;945.447;;;;
2020/03/18 14:11:48;;;;;;;7.1;4.4;;;;;;;24.77;30.93359;945.4409;;;;
2020/03/18 14:14:13;;;;;;;5.6;3.9;;;;;;;25.63;29.02051;945.449;;;;
2020/03/18 14:16:39;;;;;;;6.8;4.1;;;;;;;26.07;28.24512;945.3956;;;;
2020/03/18 14:19:04;;;;;;;6.7;4.2;;;;;;;25.17;29.35645;945.3926;;;;